Skip Navigation LinksHome page > Weather > Current weather Skip Navigation Links

Current Weather

San Francisco International, San Francisco

For information only: do not use for flight planning or navigation.
Latest weather
Observation time Tuesday, July 22, 2014 11:56 PM PDT
Local time Wednesday, July 23, 2014 12:38 AM PDT
Flight conditions Marginal Visual Meteorological Conditions
Winds
Wind direction West-Southwest (240°)
Wind speed 5 mph
Visibility 10 mi.
Sky condition
Ceiling 1,900 ft. broken clouds
Cloud layer few clouds 1,300 ft.
Cloud layer broken clouds 1,900 ft.
Temperature 68°F
Dewpoint 58°F
Altimeter 30.12 in.Hg
Derived measurements
Relative humidity 70%
Density altitude 586 ft.
Sea-level pressure 30.11 in.Hg
Remarks
System requires maintenance.
Automated weather observing station with precipitation discriminator.
METAR KSFO 230656Z 24004KT 10SM FEW013 BKN019 20/14 A3012 RMK AO2 SLP198 T02000144 $

Settings

Location code

InnerDrive.Weather 4.0.5294.0 Release CLR 4.0.30319.34014
Copyright ©2014 Inner Drive Technology. All rights reserved. Portions Copyright ©1986-2014 David Braverman.

Find weather

Site navigation


Skip Navigation Links

Place info

Page info

PayPal - The safer, easier way to pay online!

Return home.

Copyright ©2014 Inner Drive Technology. Purveyors of fine, hand-crafted computer software. Page printed 2014-07-23T07:38:49 UTC.